Terminal Aerodrome Forecast
Issued by NWS

Home | Current Version | Previous Version | Text Only | Print | Product List | Glossary Off
Versions: 1 2 3 4 5 6 7 8 9 10 11 12 13 14 15 16 17 18

000
FTUS43 KMPX 301133
TAFRNH
TAF
KRNH 301133Z 3012/3112 18005KT 3SM BR BKN003
      TEMPO 3013/3016 6SM BR SCT006
     FM301600 20010KT P6SM FEW200
     FM310000 19006KT P6SM SKC=

USA.gov is the U.S. government's official web portal to all federal, state and local government web resources and services.